sensor_id;sensor_type;location;lat;lon;timestamp;pressure;altitude;pressure_sealevel;temperature;humidity
71194;BME280;58903;47.210;8.618;2024-01-07T00:02:06;93364.97;;;25.26;35.97
71194;BME280;58903;47.210;8.618;2024-01-07T00:04:37;93365.72;;;25.27;36.23
71194;BME280;58903;47.210;8.618;2024-01-07T00:07:17;93365.28;;;25.23;36.37
71194;BME280;58903;47.210;8.618;2024-01-07T00:09:43;93368.28;;;25.25;37.18
71194;BME280;58903;47.210;8.618;2024-01-07T00:12:25;93364.97;;;25.26;36.54
71194;BME280;58903;47.210;8.618;2024-01-07T00:14:51;93365.72;;;25.27;36.84
71194;BME280;58903;47.210;8.618;2024-01-07T00:17:37;93367.53;;;25.24;36.61
71194;BME280;58903;47.210;8.618;2024-01-07T00:20:22;93368.03;;;25.23;36.63
71194;BME280;58903;47.210;8.618;2024-01-07T00:23:05;93362.53;;;25.23;37.30
71194;BME280;58903;47.210;8.618;2024-01-07T00:25:41;93359.38;;;25.19;36.63
71194;BME280;58903;47.210;8.618;2024-01-07T00:28:09;93366.78;;;25.24;36.46
71194;BME280;58903;47.210;8.618;2024-01-07T00:30:39;93366.56;;;25.22;37.14
71194;BME280;58903;47.210;8.618;2024-01-07T00:33:11;93357.38;;;25.19;37.20
71194;BME280;58903;47.210;8.618;2024-01-07T00:35:47;93364.38;;;25.20;37.02
71194;BME280;58903;47.210;8.618;2024-01-07T00:38:16;93364.88;;;25.19;37.37
71194;BME280;58903;47.210;8.618;2024-01-07T00:40:42;93355.91;;;25.18;37.50
71194;BME280;58903;47.210;8.618;2024-01-07T00:43:13;93358.66;;;25.18;37.52
71194;BME280;58903;47.210;8.618;2024-01-07T00:45:39;93361.81;;;25.22;36.91
71194;BME280;58903;47.210;8.618;2024-01-07T00:48:05;93353.88;;;25.19;37.51
71194;BME280;58903;47.210;8.618;2024-01-07T00:50:33;93357.56;;;25.21;37.91
71194;BME280;58903;47.210;8.618;2024-01-07T00:53:08;93358.88;;;25.20;37.80
71194;BME280;58903;47.210;8.618;2024-01-07T00:55:34;93358.66;;;25.18;37.53
71194;BME280;58903;47.210;8.618;2024-01-07T00:58:14;93362.88;;;25.19;37.25
71194;BME280;58903;47.210;8.618;2024-01-07T01:00:54;93364.88;;;25.19;37.97
71194;BME280;58903;47.210;8.618;2024-01-07T01:03:36;93359.16;;;25.17;36.94
71194;BME280;58903;47.210;8.618;2024-01-07T01:06:12;93362.66;;;25.17;37.14
71194;BME280;58903;47.210;8.618;2024-01-07T01:08:52;93363.06;;;25.21;37.31
71194;BME280;58903;47.210;8.618;2024-01-07T01:11:22;93353.88;;;25.19;37.12
71194;BME280;58903;47.210;8.618;2024-01-07T01:14:03;93364.88;;;25.19;37.42
71194;BME280;58903;47.210;8.618;2024-01-07T01:16:47;93363.81;;;25.22;37.15
71194;BME280;58903;47.210;8.618;2024-01-07T01:19:28;93364.78;;;25.24;37.75
71194;BME280;58903;47.210;8.618;2024-01-07T01:21:54;93368.03;;;25.23;38.07
71194;BME280;58903;47.210;8.618;2024-01-07T01:24:26;93372.28;;;25.24;37.64
71194;BME280;58903;47.210;8.618;2024-01-07T01:26:57;93376.00;;;25.26;38.26
71194;BME280;58903;47.210;8.618;2024-01-07T01:29:52;93376.94;;;25.29;38.19
71194;BME280;58903;47.210;8.618;2024-01-07T01:32:35;93375.59;;;25.22;37.88
71194;BME280;58903;47.210;8.618;2024-01-07T01:35:10;93372.50;;;25.26;37.48
71194;BME280;58903;47.210;8.618;2024-01-07T01:38:08;93382.97;;;25.27;37.44
71194;BME280;58903;47.210;8.618;2024-01-07T01:41:00;93373.78;;;25.25;37.37
71194;BME280;58903;47.210;8.618;2024-01-07T01:43:55;93367.94;;;25.28;37.87
71194;BME280;58903;47.210;8.618;2024-01-07T01:46:30;93371.22;;;25.27;37.67
71194;BME280;58903;47.210;8.618;2024-01-07T01:49:01;93372.28;;;25.24;38.20
71194;BME280;58903;47.210;8.618;2024-01-07T01:51:36;93369.53;;;25.24;37.51
71194;BME280;58903;47.210;8.618;2024-01-07T01:54:12;93370.06;;;25.22;38.42
71194;BME280;58903;47.210;8.618;2024-01-07T01:56:51;93366.56;;;25.22;37.82
71194;BME280;58903;47.210;8.618;2024-01-07T01:59:28;93374.09;;;25.21;38.32
71194;BME280;58903;47.210;8.618;2024-01-07T02:02:16;93371.34;;;25.21;37.92
71194;BME280;58903;47.210;8.618;2024-01-07T02:04:51;93370.38;;;25.19;37.87
71194;BME280;58903;47.210;8.618;2024-01-07T02:07:18;93372.09;;;25.22;38.46
71194;BME280;58903;47.210;8.618;2024-01-07T02:09:55;93373.13;;;25.19;37.66
71194;BME280;58903;47.210;8.618;2024-01-07T02:12:52;93374.84;;;25.22;37.82
71194;BME280;58903;47.210;8.618;2024-01-07T02:15:22;93382.53;;;25.23;37.83
71194;BME280;58903;47.210;8.618;2024-01-07T02:17:49;93376.09;;;25.21;38.47
71194;BME280;58903;47.210;8.618;2024-01-07T02:20:21;93377.59;;;25.22;38.35
71194;BME280;58903;47.210;8.618;2024-01-07T02:23:12;93385.09;;;25.21;38.40
71194;BME280;58903;47.210;8.618;2024-01-07T02:25:49;93377.38;;;25.20;38.41
71194;BME280;58903;47.210;8.618;2024-01-07T02:28:17;93374.63;;;25.20;38.09
71194;BME280;58903;47.210;8.618;2024-01-07T02:30:44;93373.34;;;25.21;38.54
71194;BME280;58903;47.210;8.618;2024-01-07T02:33:16;93373.34;;;25.21;38.68
71194;BME280;58903;47.210;8.618;2024-01-07T02:36:15;93374.09;;;25.21;37.67
71194;BME280;58903;47.210;8.618;2024-01-07T02:42:01;93374.63;;;25.20;37.97
71194;BME280;58903;47.210;8.618;2024-01-07T02:47:37;93368.59;;;25.21;38.15
71194;BME280;58903;47.210;8.618;2024-01-07T02:50:15;93370.38;;;25.19;38.16
71194;BME280;58903;47.210;8.618;2024-01-07T02:52:53;93367.44;;;25.17;38.33
71194;BME280;58903;47.210;8.618;2024-01-07T02:55:18;93370.38;;;25.19;38.71
71194;BME280;58903;47.210;8.618;2024-01-07T02:57:49;93373.13;;;25.19;38.29
71194;BME280;58903;47.210;8.618;2024-01-07T03:00:19;93375.16;;;25.18;38.05
71194;BME280;58903;47.210;8.618;2024-01-07T03:02:47;93373.69;;;25.17;38.53
71194;BME280;58903;47.210;8.618;2024-01-07T03:05:14;93368.16;;;25.17;38.01
71194;BME280;58903;47.210;8.618;2024-01-07T03:07:47;93371.66;;;25.18;38.20
71194;BME280;58903;47.210;8.618;2024-01-07T03:10:14;93377.72;;;25.16;38.07
71194;BME280;58903;47.210;8.618;2024-01-07T03:12:40;93377.16;;;25.18;38.61
71194;BME280;58903;47.210;8.618;2024-01-07T03:15:08;93376.44;;;25.17;37.78
71194;BME280;58903;47.210;8.618;2024-01-07T03:17:38;93375.16;;;25.18;37.81
71194;BME280;58903;47.210;8.618;2024-01-07T03:20:06;93377.72;;;25.16;38.54
71194;BME280;58903;47.210;8.618;2024-01-07T03:22:32;93376.44;;;25.17;38.51
71194;BME280;58903;47.210;8.618;2024-01-07T03:25:01;93378.63;;;25.19;38.47
71194;BME280;58903;47.210;8.618;2024-01-07T03:27:36;93379.38;;;25.19;38.63
71194;BME280;58903;47.210;8.618;2024-01-07T03:30:09;93382.13;;;25.19;37.57
71194;BME280;58903;47.210;8.618;2024-01-07T03:32:47;93379.94;;;25.18;38.37
71194;BME280;58903;47.210;8.618;2024-01-07T03:35:37;93375.69;;;25.17;37.92
71194;BME280;58903;47.210;8.618;2024-01-07T03:38:13;93379.38;;;25.19;37.82
71194;BME280;58903;47.210;8.618;2024-01-07T03:40:58;93382.13;;;25.19;37.81
71194;BME280;58903;47.210;8.618;2024-01-07T03:43:34;93381.38;;;25.19;38.69
71194;BME280;58903;47.210;8.618;2024-01-07T03:46:11;93383.94;;;25.17;38.01
71194;BME280;58903;47.210;8.618;2024-01-07T03:48:56;93384.13;;;25.19;38.15
71194;BME280;58903;47.210;8.618;2024-01-07T03:51:24;93386.38;;;25.20;37.86
71194;BME280;58903;47.210;8.618;2024-01-07T03:53:51;93382.13;;;25.19;38.75
71194;BME280;58903;47.210;8.618;2024-01-07T03:56:43;93380.88;;;25.20;38.20
71194;BME280;58903;47.210;8.618;2024-01-07T03:59:11;93386.91;;;25.19;38.53
71194;BME280;58903;47.210;8.618;2024-01-07T04:01:58;93380.97;;;25.15;38.49
71194;BME280;58903;47.210;8.618;2024-01-07T04:04:50;93390.59;;;25.21;38.21
71194;BME280;58903;47.210;8.618;2024-01-07T04:07:29;93385.44;;;25.18;38.57
71194;BME280;58903;47.210;8.618;2024-01-07T04:09:58;93386.91;;;25.19;38.06
71194;BME280;58903;47.210;8.618;2024-01-07T04:12:55;93392.41;;;25.19;38.79
71194;BME280;58903;47.210;8.618;2024-01-07T04:15:36;93389.66;;;25.19;37.79
71194;BME280;58903;47.210;8.618;2024-01-07T04:18:03;93386.91;;;25.19;38.40
71194;BME280;58903;47.210;8.618;2024-01-07T04:20:39;93392.41;;;25.19;38.92
71194;BME280;58903;47.210;8.618;2024-01-07T04:26:32;93394.22;;;25.16;37.98
71194;BME280;58903;47.210;8.618;2024-01-07T04:28:59;93395.69;;;25.17;38.04
71194;BME280;58903;47.210;8.618;2024-01-07T04:31:27;93395.69;;;25.17;37.85
71194;BME280;58903;47.210;8.618;2024-01-07T04:33:58;93394.94;;;25.17;38.40
71194;BME280;58903;47.210;8.618;2024-01-07T04:36:26;93392.94;;;25.17;38.54
71194;BME280;58903;47.210;8.618;2024-01-07T04:39:06;93395.69;;;25.17;38.15
71194;BME280;58903;47.210;8.618;2024-01-07T04:45:13;93392.94;;;25.17;38.83
71194;BME280;58903;47.210;8.618;2024-01-07T04:47:53;93399.50;;;25.14;38.27
71194;BME280;58903;47.210;8.618;2024-01-07T04:50:44;93405.94;;;25.17;38.95
71194;BME280;58903;47.210;8.618;2024-01-07T04:53:21;93401.53;;;25.14;38.10
71194;BME280;58903;47.210;8.618;2024-01-07T04:56:22;93408.50;;;25.15;38.52
71194;BME280;58903;47.210;8.618;2024-01-07T04:58:48;93409.03;;;25.13;38.36
71194;BME280;58903;47.210;8.618;2024-01-07T05:01:35;93407.25;;;25.16;38.87
71194;BME280;58903;47.210;8.618;2024-01-07T05:04:15;93414.75;;;25.15;38.26
71194;BME280;58903;47.210;8.618;2024-01-07T05:06:52;93405.75;;;25.15;38.32
71194;BME280;58903;47.210;8.618;2024-01-07T05:09:57;93413.50;;;25.16;38.17
71194;BME280;58903;47.210;8.618;2024-01-07T05:12:54;93412.19;;;25.17;39.09
71194;BME280;58903;47.210;8.618;2024-01-07T05:15:23;93410.19;;;25.18;39.28
71194;BME280;58903;47.210;8.618;2024-01-07T05:17:51;93417.69;;;25.17;39.06
71194;BME280;58903;47.210;8.618;2024-01-07T05:20:19;93417.16;;;25.19;38.80
71194;BME280;58903;47.210;8.618;2024-01-07T05:23:23;93417.69;;;25.17;38.50
71194;BME280;58903;47.210;8.618;2024-01-07T05:26:00;93416.97;;;25.17;38.37
71194;BME280;58903;47.210;8.618;2024-01-07T05:28:26;93411.25;;;25.15;39.27
71194;BME280;58903;47.210;8.618;2024-01-07T05:31:01;93418.25;;;25.16;38.45
71194;BME280;58903;47.210;8.618;2024-01-07T05:33:29;93414.53;;;25.13;38.96
71194;BME280;58903;47.210;8.618;2024-01-07T05:39:00;93418.75;;;25.14;38.64
71194;BME280;58903;47.210;8.618;2024-01-07T05:41:36;93420.25;;;25.15;38.33
71194;BME280;58903;47.210;8.618;2024-01-07T05:47:30;93427.00;;;25.14;38.50
71194;BME280;58903;47.210;8.618;2024-01-07T05:49:57;93427.00;;;25.14;39.12
71194;BME280;58903;47.210;8.618;2024-01-07T05:52:23;93433.47;;;25.17;38.51
71194;BME280;58903;47.210;8.618;2024-01-07T05:54:50;93429.25;;;25.16;38.61
71194;BME280;58903;47.210;8.618;2024-01-07T05:57:16;93436.44;;;25.19;38.78
71194;BME280;58903;47.210;8.618;2024-01-07T05:59:45;93436.13;;;25.22;39.18
71194;BME280;58903;47.210;8.618;2024-01-07T06:02:21;93430.94;;;25.19;38.12
71194;BME280;58903;47.210;8.618;2024-01-07T06:05:09;93433.38;;;25.22;38.25
71194;BME280;58903;47.210;8.618;2024-01-07T06:07:48;93434.97;;;25.18;38.20
71194;BME280;58903;47.210;8.618;2024-01-07T06:10:28;93441.63;;;25.22;38.52
71194;BME280;58903;47.210;8.618;2024-01-07T06:12:54;93442.13;;;25.21;38.54
71194;BME280;58903;47.210;8.618;2024-01-07T06:15:33;93441.94;;;25.19;38.15
71194;BME280;58903;47.210;8.618;2024-01-07T06:18:12;93434.22;;;25.17;39.02
71194;BME280;58903;47.210;8.618;2024-01-07T06:20:40;93441.94;;;25.19;39.20
71194;BME280;58903;47.210;8.618;2024-01-07T06:23:36;93453.69;;;25.19;38.24
71194;BME280;58903;47.210;8.618;2024-01-07T06:26:11;93445.97;;;25.18;38.95
71194;BME280;58903;47.210;8.618;2024-01-07T06:28:57;93452.63;;;25.22;38.30
71194;BME280;58903;47.210;8.618;2024-01-07T06:31:24;93455.91;;;25.21;38.35
71194;BME280;58903;47.210;8.618;2024-01-07T06:34:11;93456.84;;;25.23;39.27
71194;BME280;58903;47.210;8.618;2024-01-07T06:37:05;93457.59;;;25.24;39.10
71194;BME280;58903;47.210;8.618;2024-01-07T06:39:46;93464.16;;;25.21;38.62
71194;BME280;58903;47.210;8.618;2024-01-07T06:42:36;93471.34;;;25.24;38.18
71194;BME280;58903;47.210;8.618;2024-01-07T06:45:04;93461.09;;;25.24;38.36
71194;BME280;58903;47.210;8.618;2024-01-07T06:47:46;93467.13;;;25.23;38.21
71194;BME280;58903;47.210;8.618;2024-01-07T06:53:35;93458.78;;;25.15;39.08
71194;BME280;58903;47.210;8.618;2024-01-07T06:56:10;93469.88;;;25.23;39.11
71194;BME280;58903;47.210;8.618;2024-01-07T06:58:36;93474.31;;;25.26;38.06
71194;BME280;58903;47.210;8.618;2024-01-07T07:01:02;93477.63;;;25.24;38.04
71194;BME280;58903;47.210;8.618;2024-01-07T07:03:28;93475.16;;;25.21;38.07
71194;BME280;58903;47.210;8.618;2024-01-07T07:05:54;93485.66;;;25.22;38.33
71194;BME280;58903;47.210;8.618;2024-01-07T07:08:24;93476.22;;;25.31;38.20
71194;BME280;58903;47.210;8.618;2024-01-07T07:10:53;93477.41;;;25.35;38.56
71194;BME280;58903;47.210;8.618;2024-01-07T07:13:24;93483.53;;;25.41;38.44
71194;BME280;58903;47.210;8.618;2024-01-07T07:15:52;93485.75;;;25.43;38.18
71194;BME280;58903;47.210;8.618;2024-01-07T07:18:22;93490.22;;;25.46;38.41
71194;BME280;58903;47.210;8.618;2024-01-07T07:21:08;93493.19;;;25.48;37.71
71194;BME280;58903;47.210;8.618;2024-01-07T07:23:35;93484.38;;;25.50;38.52
71194;BME280;58903;47.210;8.618;2024-01-07T07:26:01;93484.78;;;25.54;37.49
71194;BME280;58903;47.210;8.618;2024-01-07T07:28:28;93489.03;;;25.55;38.39
71194;BME280;58903;47.210;8.618;2024-01-07T07:30:57;93484.50;;;25.57;38.23
71194;BME280;58903;47.210;8.618;2024-01-07T07:33:30;93483.41;;;25.60;38.60
71194;BME280;58903;47.210;8.618;2024-01-07T07:35:57;93493.91;;;25.62;38.64
71194;BME280;58903;47.210;8.618;2024-01-07T07:38:37;93497.38;;;25.62;37.83
71194;BME280;58903;47.210;8.618;2024-01-07T07:41:12;93501.63;;;25.63;37.90
71194;BME280;58903;47.210;8.618;2024-01-07T07:43:39;93498.88;;;25.63;37.47
71194;BME280;58903;47.210;8.618;2024-01-07T07:46:12;93504.19;;;25.61;38.13
71194;BME280;58903;47.210;8.618;2024-01-07T07:48:47;93493.16;;;25.61;38.44
71194;BME280;58903;47.210;8.618;2024-01-07T07:51:31;93510.75;;;25.58;37.78
71194;BME280;58903;47.210;8.618;2024-01-07T07:53:59;93499.72;;;25.58;38.13
71194;BME280;58903;47.210;8.618;2024-01-07T07:56:31;93496.00;;;25.56;38.46
71194;BME280;58903;47.210;8.618;2024-01-07T07:58:56;93502.06;;;25.54;38.31
71194;BME280;58903;47.210;8.618;2024-01-07T08:01:48;93503.34;;;25.53;37.96
71194;BME280;58903;47.210;8.618;2024-01-07T08:04:17;93508.84;;;25.53;38.12
71194;BME280;58903;47.210;8.618;2024-01-07T08:06:51;93512.44;;;25.48;38.40
71194;BME280;58903;47.210;8.618;2024-01-07T08:09:18;93519.53;;;25.43;38.35
71194;BME280;58903;47.210;8.618;2024-01-07T08:11:57;93522.59;;;25.40;38.12
71194;BME280;58903;47.210;8.618;2024-01-07T08:14:34;93522.91;;;25.36;38.50
71194;BME280;58903;47.210;8.618;2024-01-07T08:17:18;93515.94;;;25.35;38.29
71194;BME280;58903;47.210;8.618;2024-01-07T08:20:15;93523.44;;;25.35;38.93
71194;BME280;58903;47.210;8.618;2024-01-07T08:22:55;93517.53;;;25.31;38.77
71194;BME280;58903;47.210;8.618;2024-01-07T08:25:22;93527.44;;;25.34;38.28
71194;BME280;58903;47.210;8.618;2024-01-07T08:28:12;93538.16;;;25.37;38.53
71194;BME280;58903;47.210;8.618;2024-01-07T08:30:39;93527.91;;;25.38;39.07
71194;BME280;58903;47.210;8.618;2024-01-07T08:33:05;93537.22;;;25.35;39.11
71194;BME280;58903;47.210;8.618;2024-01-07T08:35:32;93536.47;;;25.34;38.83
71194;BME280;58903;47.210;8.618;2024-01-07T08:38:04;93541.22;;;25.34;39.17
71194;BME280;58903;47.210;8.618;2024-01-07T08:40:43;93531.28;;;25.31;39.05
71194;BME280;58903;47.210;8.618;2024-01-07T08:43:19;93543.03;;;25.31;38.85
71194;BME280;58903;47.210;8.618;2024-01-07T08:45:54;93542.09;;;25.29;39.47
71194;BME280;58903;47.210;8.618;2024-01-07T08:48:21;93544.28;;;25.30;40.06
71194;BME280;58903;47.210;8.618;2024-01-07T08:50:47;93544.28;;;25.30;39.24
71194;BME280;58903;47.210;8.618;2024-01-07T08:53:13;93539.31;;;25.29;40.15
71194;BME280;58903;47.210;8.618;2024-01-07T08:55:40;93543.53;;;25.30;40.07
71194;BME280;58903;47.210;8.618;2024-01-07T08:58:06;93546.31;;;25.30;40.41
71194;BME280;58903;47.210;8.618;2024-01-07T09:00:33;93552.56;;;25.30;40.20
71194;BME280;58903;47.210;8.618;2024-01-07T09:02:59;93548.84;;;25.28;41.13
71194;BME280;58903;47.210;8.618;2024-01-07T09:05:30;93553.59;;;25.27;41.06
71194;BME280;58903;47.210;8.618;2024-01-07T09:07:58;93559.09;;;25.27;40.55
71194;BME280;58903;47.210;8.618;2024-01-07T09:10:25;93551.81;;;25.30;40.08
71194;BME280;58903;47.210;8.618;2024-01-07T09:12:53;93561.66;;;25.38;40.35
71194;BME280;58903;47.210;8.618;2024-01-07T09:15:20;93568.13;;;25.41;39.63
71194;BME280;58903;47.210;8.618;2024-01-07T09:17:47;93570.34;;;25.42;39.19
71194;BME280;58903;47.210;8.618;2024-01-07T09:20:13;93564.13;;;25.42;38.06
71194;BME280;58903;47.210;8.618;2024-01-07T09:22:39;93571.09;;;25.43;37.95
71194;BME280;58903;47.210;8.618;2024-01-07T09:25:09;93569.09;;;25.43;37.52
71194;BME280;58903;47.210;8.618;2024-01-07T09:27:37;93573.22;;;25.50;37.13
71194;BME280;58903;47.210;8.618;2024-01-07T09:30:04;93573.88;;;25.56;37.27
71194;BME280;58903;47.210;8.618;2024-01-07T09:32:30;93569.22;;;25.64;38.01
71194;BME280;58903;47.210;8.618;2024-01-07T09:34:56;93573.44;;;25.78;37.85
71194;BME280;58903;47.210;8.618;2024-01-07T09:37:24;93583.41;;;25.81;37.36
71194;BME280;58903;47.210;8.618;2024-01-07T09:39:51;93568.03;;;25.73;37.46
71194;BME280;58903;47.210;8.618;2024-01-07T09:42:19;93584.44;;;25.78;36.67
71194;BME280;58903;47.210;8.618;2024-01-07T09:44:45;93574.91;;;25.79;37.03
71194;BME280;58903;47.210;8.618;2024-01-07T09:47:18;93581.69;;;25.78;37.26
71194;BME280;58903;47.210;8.618;2024-01-07T09:49:53;93585.50;;;25.75;37.99
71194;BME280;58903;47.210;8.618;2024-01-07T09:52:21;93586.56;;;25.72;37.93
71194;BME280;58903;47.210;8.618;2024-01-07T09:54:53;93577.69;;;25.66;38.31
71194;BME280;58903;47.210;8.618;2024-01-07T09:57:20;93584.78;;;25.62;37.68
71194;BME280;58903;47.210;8.618;2024-01-07T09:59:46;93584.56;;;25.60;38.55
71194;BME280;58903;47.210;8.618;2024-01-07T10:02:15;93585.41;;;25.55;37.95
71194;BME280;58903;47.210;8.618;2024-01-07T10:04:49;93584.03;;;25.48;38.92
71194;BME280;58903;47.210;8.618;2024-01-07T10:07:16;93588.38;;;25.43;38.93
71194;BME280;58903;47.210;8.618;2024-01-07T10:09:45;93584.38;;;25.45;38.81
71194;BME280;58903;47.210;8.618;2024-01-07T10:12:12;93596.38;;;25.41;38.57
71194;BME280;58903;47.210;8.618;2024-01-07T10:14:40;93584.63;;;25.41;38.33
71194;BME280;58903;47.210;8.618;2024-01-07T10:17:21;93585.91;;;25.40;39.25
71194;BME280;58903;47.210;8.618;2024-01-07T10:19:56;93579.88;;;25.41;38.34
71194;BME280;58903;47.210;8.618;2024-01-07T10:22:28;93579.66;;;25.39;39.28
71194;BME280;58903;47.210;8.618;2024-01-07T10:25:05;93577.91;;;25.42;38.88
71194;BME280;58903;47.210;8.618;2024-01-07T10:27:36;93579.88;;;25.41;38.94
71194;BME280;58903;47.210;8.618;2024-01-07T10:30:08;93579.13;;;25.41;39.08
71194;BME280;58903;47.210;8.618;2024-01-07T10:32:37;93573.63;;;25.41;38.94
71194;BME280;58903;47.210;8.618;2024-01-07T10:35:04;93574.38;;;25.41;38.41
71194;BME280;58903;47.210;8.618;2024-01-07T10:37:34;93584.78;;;25.49;38.64
71194;BME280;58903;47.210;8.618;2024-01-07T10:40:01;93574.72;;;25.51;39.55
71194;BME280;58903;47.210;8.618;2024-01-07T10:42:31;93579.56;;;25.58;38.87
71194;BME280;58903;47.210;8.618;2024-01-07T10:45:00;93572.41;;;25.55;38.98
71194;BME280;58903;47.210;8.618;2024-01-07T10:47:29;93571.09;;;25.56;38.78
71194;BME280;58903;47.210;8.618;2024-01-07T10:50:11;93568.56;;;25.58;39.38
71194;BME280;58903;47.210;8.618;2024-01-07T10:52:40;93572.19;;;25.66;38.57
71194;BME280;58903;47.210;8.618;2024-01-07T10:55:14;93565.72;;;25.64;39.10
71194;BME280;58903;47.210;8.618;2024-01-07T10:57:44;93568.88;;;25.68;39.61
71194;BME280;58903;47.210;8.618;2024-01-07T11:00:30;93571.63;;;25.68;38.55
71194;BME280;58903;47.210;8.618;2024-01-07T11:03:21;93573.84;;;25.69;38.65
71194;BME280;58903;47.210;8.618;2024-01-07T11:06:09;93566.34;;;25.70;39.12
71194;BME280;58903;47.210;8.618;2024-01-07T11:08:54;93571.09;;;25.69;39.26
71194;BME280;58903;47.210;8.618;2024-01-07T11:11:36;93577.03;;;25.73;38.30
71194;BME280;58903;47.210;8.618;2024-01-07T11:14:04;93568.56;;;25.71;38.92
71194;BME280;58903;47.210;8.618;2024-01-07T11:16:45;93564.00;;;25.74;38.39
71194;BME280;58903;47.210;8.618;2024-01-07T11:19:20;93568.97;;;25.75;39.00
71194;BME280;58903;47.210;8.618;2024-01-07T11:21:48;93557.22;;;25.75;38.68
71194;BME280;58903;47.210;8.618;2024-01-07T11:24:41;93557.94;;;25.75;38.77
71194;BME280;58903;47.210;8.618;2024-01-07T11:27:09;93549.47;;;25.73;38.22
71194;BME280;58903;47.210;8.618;2024-01-07T11:29:37;93561.59;;;25.70;38.16
71194;BME280;58903;47.210;8.618;2024-01-07T11:32:05;93552.97;;;25.74;38.17
71194;BME280;58903;47.210;8.618;2024-01-07T11:34:44;93552.78;;;25.72;38.47
71194;BME280;58903;47.210;8.618;2024-01-07T11:37:15;93560.09;;;25.69;38.38
71194;BME280;58903;47.210;8.618;2024-01-07T11:39:45;93559.88;;;25.67;38.97
71194;BME280;58903;47.210;8.618;2024-01-07T11:42:47;93552.16;;;25.66;38.45
71194;BME280;58903;47.210;8.618;2024-01-07T11:45:23;93546.94;;;25.62;39.37
71194;BME280;58903;47.210;8.618;2024-01-07T11:47:59;93545.56;;;25.69;38.56
71194;BME280;58903;47.210;8.618;2024-01-07T11:50:36;93552.91;;;25.66;39.29
71194;BME280;58903;47.210;8.618;2024-01-07T11:53:20;93557.88;;;25.68;38.94
71194;BME280;58903;47.210;8.618;2024-01-07T11:55:58;93554.16;;;25.65;39.55
71194;BME280;58903;47.210;8.618;2024-01-07T11:58:34;93551.94;;;25.64;39.52
71194;BME280;58903;47.210;8.618;2024-01-07T12:01:03;93555.44;;;25.64;39.58
71194;BME280;58903;47.210;8.618;2024-01-07T12:03:38;93555.66;;;25.66;39.37
71194;BME280;58903;47.210;8.618;2024-01-07T12:06:15;93555.66;;;25.66;38.88
71194;BME280;58903;47.210;8.618;2024-01-07T12:09:12;93557.13;;;25.67;39.76
71194;BME280;58903;47.210;8.618;2024-01-07T12:11:55;93553.41;;;25.65;39.40
71194;BME280;58903;47.210;8.618;2024-01-07T12:14:22;93549.06;;;25.69;38.66
71194;BME280;58903;47.210;8.618;2024-01-07T12:16:49;93553.13;;;25.68;39.55
71194;BME280;58903;47.210;8.618;2024-01-07T12:19:18;93560.84;;;25.70;38.70
71194;BME280;58903;47.210;8.618;2024-01-07T12:21:47;93553.13;;;25.68;39.35
71194;BME280;58903;47.210;8.618;2024-01-07T12:24:13;93549.81;;;25.70;39.43
71194;BME280;58903;47.210;8.618;2024-01-07T12:27:03;93556.06;;;25.70;39.50
71194;BME280;58903;47.210;8.618;2024-01-07T12:29:38;93552.16;;;25.66;39.39
71194;BME280;58903;47.210;8.618;2024-01-07T12:32:06;93547.28;;;25.59;39.52
71194;BME280;58903;47.210;8.618;2024-01-07T12:34:59;93547.63;;;25.55;39.23
71194;BME280;58903;47.210;8.618;2024-01-07T12:37:34;93555.44;;;25.51;39.60
71194;BME280;58903;47.210;8.618;2024-01-07T12:40:02;93553.97;;;25.50;39.50
71194;BME280;58903;47.210;8.618;2024-01-07T12:42:53;93557.13;;;25.54;39.64
71194;BME280;58903;47.210;8.618;2024-01-07T12:45:48;93557.03;;;25.60;39.13
71194;BME280;58903;47.210;8.618;2024-01-07T12:48:15;93552.38;;;25.55;39.83
71194;BME280;58903;47.210;8.618;2024-01-07T12:50:53;93566.13;;;25.55;39.84
71194;BME280;58903;47.210;8.618;2024-01-07T12:53:19;93558.84;;;25.57;39.61
71194;BME280;58903;47.210;8.618;2024-01-07T12:55:47;93557.13;;;25.54;39.91
71194;BME280;58903;47.210;8.618;2024-01-07T12:58:25;93560.09;;;25.56;39.76
71194;BME280;58903;47.210;8.618;2024-01-07T13:00:57;93557.88;;;25.55;39.83
71194;BME280;58903;47.210;8.618;2024-01-07T13:03:23;93565.59;;;25.56;39.47
71194;BME280;58903;47.210;8.618;2024-01-07T13:05:50;93554.38;;;25.54;40.14
71194;BME280;58903;47.210;8.618;2024-01-07T13:08:17;93559.88;;;25.54;39.99
71194;BME280;58903;47.210;8.618;2024-01-07T13:10:50;93567.09;;;25.57;40.16
71194;BME280;58903;47.210;8.618;2024-01-07T13:13:17;93570.81;;;25.60;39.89
71194;BME280;58903;47.210;8.618;2024-01-07T13:15:52;93570.47;;;25.63;38.82
71194;BME280;58903;47.210;8.618;2024-01-07T13:18:55;93569.44;;;25.66;39.07
71194;BME280;58903;47.210;8.618;2024-01-07T13:21:36;93570.69;;;25.65;38.89
71194;BME280;58903;47.210;8.618;2024-01-07T13:24:16;93567.38;;;25.67;38.28
71194;BME280;58903;47.210;8.618;2024-01-07T13:27:08;93571.63;;;25.68;38.27
71194;BME280;58903;47.210;8.618;2024-01-07T13:30:06;93572.38;;;25.68;38.75
71194;BME280;58903;47.210;8.618;2024-01-07T13:32:51;93570.88;;;25.67;38.74
71194;BME280;58903;47.210;8.618;2024-01-07T13:35:37;93579.91;;;25.68;38.76
71194;BME280;58903;47.210;8.618;2024-01-07T13:38:10;93579.91;;;25.68;38.76
71194;BME280;58903;47.210;8.618;2024-01-07T13:40:38;93585.41;;;25.68;38.48
71194;BME280;58903;47.210;8.618;2024-01-07T13:43:04;93577.69;;;25.66;38.97
71194;BME280;58903;47.210;8.618;2024-01-07T13:45:41;93582.13;;;25.69;38.63
71194;BME280;58903;47.210;8.618;2024-01-07T13:48:27;93578.63;;;25.69;38.47
71194;BME280;58903;47.210;8.618;2024-01-07T13:51:05;93584.66;;;25.67;38.56
71194;BME280;58903;47.210;8.618;2024-01-07T13:53:51;93586.88;;;25.69;37.94
71194;BME280;58903;47.210;8.618;2024-01-07T13:56:39;93584.88;;;25.69;38.24
71194;BME280;58903;47.210;8.618;2024-01-07T13:59:12;93584.66;;;25.67;37.88
71194;BME280;58903;47.210;8.618;2024-01-07T14:01:47;93587.84;;;25.71;38.40
71194;BME280;58903;47.210;8.618;2024-01-07T14:04:23;93589.44;;;25.67;38.52